Valerie, California
Current Conditions -  °F | °C
As of 9:56 AM on Monday 26 Jan 2015 (Local Time) from KNJK Reporting Station
Broken Clouds Broken Clouds  
Wind Chill: 64°   Ceiling: 8500
Heat Index: 64°   Visibility: 10mi
Dew Point: 45°   Wind: 9mph
Humidity: 50%   Direction: 100°E
Pressure: 30.12"   Gusts: NA
Location:  33.093°N, 116.06°W
Report Text: KNJK 261756Z 10008KT 10SM FEW060 BKN085 BKN120 18/07 A3012 RMK AO2 SLP216 60001 T01780072 10178 20128 51026
Loading
Personal Weather Stations






























Interactive Weather Map New forecast layout! Learn more

10-Day Weather Forecast

Advertisements
Track Severe Weather on mobile